Etusivu
METAR-TAF:

METAR-TAF

Lentoasemat :

Gökçeada, Turkki

Leveyspiiri: 40-12-04N, Pituuspiiri: 25-52-56E, korkeus merenpinnasta: 22 m

METAR: puuttuu

Aika: 21:11 (18:11 UTC)

Sääennuste

Tämä raportti tehtiin 4 tuntia ja 31 minuuttia sitten, kello 13.40 UTC
Ennuste voimassa 26. päivästä klo 15 UTC - 26. päivään klo 24 UTC
Tuuli 18 kn pohjoisesta/koillisesta
Näkyvyys 10 km tai enemmän
ei pilviä alle 1500 m:ssä eikä cumulonimbus-pilviä

TAF: LTFK 261340Z 2615/2624 03018KT CAVOK

Säähavainnot ja -ennusteet yli 4000 lentoasemalta (METAR- ja TAF-raportit).

Käytössä olevat sääasemat on merkitty karttaan keltaisilla ja punaisilla pisteillä.

Aseta hiiri pisteen päälle nähdäksesi sääaseman nimen.

Klikkaa sitten nähdäksesi säähavainnot ja -ennusteet.

Kartan vaihtaminen: klikkaa mustalla rastilla varustettuja vihreitä pisteitä, niin voit zoomata sisään; viivalla varustettua vihreää pistettä, niin voit zoomata ulos tai vihreitä nuolia, niin pääset viereisille kartoille.


METAR-TAF: